Time;durP1;ratioP1;P1;durP2;ratioP2;P2;SDS_P1;SDS_P2;PMS_P1;PMS_P2;Temp;Humidity;BMP_temperature;BMP_pressure;BME280_temperature;BME280_humidity;BME280_pressure;Samples;Min_cycle;Max_cycle;Signal;HPM_P1;HPM_P2
2022/03/20 00:00:25;;;;;;;9.10;7.97;;;;;;;;;;5026655;28;20551;-74
2022/03/20 00:02:51;;;;;;;13.73;9.67;;;;;;;;;;5038250;28;20500;-73
2022/03/20 00:05:17;;;;;;;11.43;8.00;;;;;;;;;;5031064;28;20537;-74
2022/03/20 00:07:44;;;;;;;10.23;9.13;;;;;;;;;;5035253;28;20524;-74
2022/03/20 00:10:10;;;;;;;7.73;7.03;;;;;;;;;;5035131;28;20581;-74
2022/03/20 00:12:38;;;;;;;8.37;7.60;;;;;;;;;;5038550;28;20430;-74
2022/03/20 00:15:04;;;;;;;8.87;7.80;;;;;;;;;;5036979;28;20957;-74
2022/03/20 00:17:30;;;;;;;8.10;7.30;;;;;;;;;;5045500;28;20500;-74
2022/03/20 00:19:57;;;;;;;13.23;9.07;;;;;;;;;;5037982;28;20481;-74
2022/03/20 00:22:23;;;;;;;11.30;8.70;;;;;;;;;;5040399;28;20445;-74
2022/03/20 00:24:50;;;;;;;10.53;9.40;;;;;;;;;;5047481;28;20443;-74
2022/03/20 00:27:16;;;;;;;9.30;8.37;;;;;;;;;;5048453;28;20981;-74
2022/03/20 00:29:42;;;;;;;11.43;8.60;;;;;;;;;;5042732;28;21009;-74
2022/03/20 00:32:09;;;;;;;17.37;9.83;;;;;;;;;;5046137;28;20438;-74
2022/03/20 00:34:38;;;;;;;8.87;8.07;;;;;;;;;;5051310;28;20438;-74
2022/03/20 00:37:05;;;;;;;10.70;8.83;;;;;;;;;;5048772;28;20430;-74
2022/03/20 00:39:31;;;;;;;9.60;8.53;;;;;;;;;;5041543;28;20549;-74
2022/03/20 00:41:57;;;;;;;13.73;8.67;;;;;;;;;;5050733;28;20517;-74
2022/03/20 00:44:23;;;;;;;9.37;7.80;;;;;;;;;;5051744;28;21049;-73
2022/03/20 00:46:49;;;;;;;9.00;7.70;;;;;;;;;;5041088;28;21050;-73
2022/03/20 00:49:16;;;;;;;8.93;8.03;;;;;;;;;;5050661;28;20500;-74
2022/03/20 00:51:42;;;;;;;7.83;7.10;;;;;;;;;;5050244;28;20538;-74
2022/03/20 00:54:09;;;;;;;9.87;7.30;;;;;;;;;;5050632;28;20433;-73
2022/03/20 00:56:35;;;;;;;10.30;6.93;;;;;;;;;;5043488;28;20534;-74
2022/03/20 00:59:01;;;;;;;14.60;7.60;;;;;;;;;;5048048;28;21052;-74
2022/03/20 01:01:28;;;;;;;7.30;6.67;;;;;;;;;;5050660;28;20652;-74
2022/03/20 01:03:54;;;;;;;9.00;5.63;;;;;;;;;;5048863;28;20433;-73
2022/03/20 01:06:22;;;;;;;7.33;6.73;;;;;;;;;;5045943;28;20447;-74
2022/03/20 01:08:49;;;;;;;10.83;6.17;;;;;;;;;;5051445;28;20546;-74
2022/03/20 01:11:15;;;;;;;8.27;6.47;;;;;;;;;;5049591;28;20525;-74
2022/03/20 01:13:41;;;;;;;8.10;7.20;;;;;;;;;;5051328;28;20992;-74
2022/03/20 01:16:07;;;;;;;7.27;6.43;;;;;;;;;;5046892;28;20434;-74
2022/03/20 01:18:33;;;;;;;7.90;7.10;;;;;;;;;;5041543;28;20445;-73
2022/03/20 01:20:59;;;;;;;8.93;8.03;;;;;;;;;;5050152;28;20434;-74
2022/03/20 01:23:26;;;;;;;11.57;7.50;;;;;;;;;;5049975;28;20515;-73
2022/03/20 01:25:52;;;;;;;10.30;6.43;;;;;;;;;;5042838;28;20442;-73
2022/03/20 01:28:18;;;;;;;7.17;6.60;;;;;;;;;;5051074;28;20492;-73
2022/03/20 01:30:45;;;;;;;8.03;7.23;;;;;;;;;;5044414;28;20457;-74
2022/03/20 01:33:11;;;;;;;9.57;7.60;;;;;;;;;;5047127;28;20791;-74
2022/03/20 01:35:37;;;;;;;9.67;6.60;;;;;;;;;;5049257;28;20998;-74
2022/03/20 01:38:05;;;;;;;6.33;5.93;;;;;;;;;;5048879;28;20562;-74
2022/03/20 01:40:31;;;;;;;6.97;6.20;;;;;;;;;;5049428;28;20434;-74
2022/03/20 01:42:57;;;;;;;7.17;6.50;;;;;;;;;;5049326;28;20448;-74
2022/03/20 01:45:24;;;;;;;9.63;6.73;;;;;;;;;;5043082;28;20493;-74
2022/03/20 01:47:50;;;;;;;6.43;5.87;;;;;;;;;;5047669;28;20434;-73
2022/03/20 01:50:17;;;;;;;6.57;5.83;;;;;;;;;;5048695;28;21015;-74
2022/03/20 01:52:47;;;;;;;9.63;6.23;;;;;;;;;;5050294;28;20438;-73
2022/03/20 01:55:14;;;;;;;7.23;6.53;;;;;;;;;;5045559;28;20457;-73
2022/03/20 01:57:40;;;;;;;7.43;6.60;;;;;;;;;;5038993;28;20999;-73
2022/03/20 02:00:06;;;;;;;7.30;5.97;;;;;;;;;;5049586;28;20434;-74
2022/03/20 02:02:32;;;;;;;5.93;5.03;;;;;;;;;;5050185;28;20429;-73
2022/03/20 02:04:59;;;;;;;5.57;5.17;;;;;;;;;;5047978;28;20500;-73
2022/03/20 02:07:25;;;;;;;5.43;4.90;;;;;;;;;;5039762;28;20533;-74
2022/03/20 02:09:51;;;;;;;6.83;5.70;;;;;;;;;;5048905;28;20496;-74
2022/03/20 02:12:17;;;;;;;5.77;5.37;;;;;;;;;;5047171;28;20521;-74
2022/03/20 02:14:45;;;;;;;5.20;4.90;;;;;;;;;;5037187;28;20492;-74
2022/03/20 02:17:11;;;;;;;7.80;6.27;;;;;;;;;;5046363;28;20799;-74
2022/03/20 02:19:41;;;;;;;7.20;6.50;;;;;;;;;;5048363;28;20438;-74
2022/03/20 02:22:07;;;;;;;6.20;5.70;;;;;;;;;;5049506;28;20431;-74
2022/03/20 02:24:41;;;;;;;9.33;5.93;;;;;;;;;;5048733;28;20518;-74
2022/03/20 02:27:23;;;;;;;6.30;5.70;;;;;;;;;;5048392;28;20438;-74
2022/03/20 02:29:57;;;;;;;6.23;5.70;;;;;;;;;;5040853;28;20486;-74
2022/03/20 02:32:27;;;;;;;14.07;6.93;;;;;;;;;;5047852;28;20437;-74
2022/03/20 02:34:53;;;;;;;6.97;6.07;;;;;;;;;;5050644;28;20438;-73
2022/03/20 02:37:20;;;;;;;6.83;6.23;;;;;;;;;;5050553;28;20960;-73
2022/03/20 02:39:46;;;;;;;6.73;6.13;;;;;;;;;;5042888;28;20480;-74
2022/03/20 02:42:13;;;;;;;7.40;5.40;;;;;;;;;;5040730;28;20441;-74
2022/03/20 02:45:00;;;;;;;7.10;6.40;;;;;;;;;;5047730;28;20948;-73
2022/03/20 02:47:27;;;;;;;10.40;5.83;;;;;;;;;;5048871;28;20493;-74
2022/03/20 02:49:54;;;;;;;6.40;5.90;;;;;;;;;;5043831;28;20487;-73
2022/03/20 02:52:21;;;;;;;6.93;6.23;;;;;;;;;;5042251;28;20861;-74
2022/03/20 02:54:47;;;;;;;6.20;5.60;;;;;;;;;;5048755;28;20814;-73
2022/03/20 02:57:13;;;;;;;7.50;6.37;;;;;;;;;;5049626;28;20488;-74
2022/03/20 02:59:39;;;;;;;6.60;6.10;;;;;;;;;;5044905;28;20521;-73
2022/03/20 03:02:09;;;;;;;6.27;5.67;;;;;;;;;;5040775;28;20438;-74
2022/03/20 03:04:37;;;;;;;10.80;6.87;;;;;;;;;;5048185;28;20438;-74
2022/03/20 03:07:03;;;;;;;10.30;7.17;;;;;;;;;;5041644;28;20498;-74
2022/03/20 03:12:14;;;;;;;9.30;6.43;;;;;;;;;;5047097;28;21939;-74
2022/03/20 03:17:27;;;;;;;8.27;7.47;;;;;;;;;;5049529;28;20433;-74
2022/03/20 03:19:54;;;;;;;7.10;6.57;;;;;;;;;;5049114;28;20513;-74
2022/03/20 03:22:20;;;;;;;6.30;5.70;;;;;;;;;;5038848;28;20451;-74
2022/03/20 03:24:46;;;;;;;6.97;6.47;;;;;;;;;;5048734;28;20434;-74
2022/03/20 03:27:12;;;;;;;8.87;6.50;;;;;;;;;;5047713;28;20534;-73
2022/03/20 03:29:38;;;;;;;7.40;6.70;;;;;;;;;;5047042;28;21065;-74
2022/03/20 03:32:05;;;;;;;7.10;6.43;;;;;;;;;;5041745;28;20809;-74
2022/03/20 03:37:22;;;;;;;6.93;6.30;;;;;;;;;;5046137;28;20492;-73
2022/03/20 03:39:48;;;;;;;6.40;5.80;;;;;;;;;;5043010;28;20453;-73
2022/03/20 03:42:14;;;;;;;7.03;6.43;;;;;;;;;;5043787;28;20439;-73
2022/03/20 03:44:40;;;;;;;7.30;6.57;;;;;;;;;;5047769;28;20445;-73
2022/03/20 03:47:06;;;;;;;9.50;6.17;;;;;;;;;;5045397;28;20458;-74
2022/03/20 03:49:35;;;;;;;16.23;7.30;;;;;;;;;;5048229;28;21011;-73
2022/03/20 03:52:02;;;;;;;8.83;7.47;;;;;;;;;;5042202;28;20441;-74
2022/03/20 03:54:29;;;;;;;7.80;6.90;;;;;;;;;;5048820;28;20438;-73
2022/03/20 03:56:55;;;;;;;9.10;7.23;;;;;;;;;;5038484;28;20439;-73
2022/03/20 03:59:21;;;;;;;7.73;7.03;;;;;;;;;;5076203;28;20628;-73
2022/03/20 04:01:47;;;;;;;8.03;7.23;;;;;;;;;;5043968;28;20435;-74
2022/03/20 04:04:13;;;;;;;9.13;8.30;;;;;;;;;;5037406;28;20458;-74
2022/03/20 04:06:39;;;;;;;8.57;6.43;;;;;;;;;;5048727;28;20427;-73
2022/03/20 04:09:05;;;;;;;7.80;6.90;;;;;;;;;;5048520;28;20477;-73
2022/03/20 04:11:32;;;;;;;7.23;6.53;;;;;;;;;;5049156;28;20441;-74
2022/03/20 04:13:58;;;;;;;7.67;6.63;;;;;;;;;;5038857;28;20820;-74
2022/03/20 04:16:24;;;;;;;9.43;7.17;;;;;;;;;;5042774;28;20604;-73
2022/03/20 04:18:53;;;;;;;7.23;6.60;;;;;;;;;;5048556;28;20449;-74
2022/03/20 04:21:19;;;;;;;7.20;6.50;;;;;;;;;;5048830;28;20457;-74
2022/03/20 04:23:49;;;;;;;12.37;7.17;;;;;;;;;;5036859;28;20443;-74
2022/03/20 04:26:20;;;;;;;7.17;6.60;;;;;;;;;;5045234;28;20438;-74
2022/03/20 04:28:46;;;;;;;8.27;7.17;;;;;;;;;;5049087;28;20946;-74
2022/03/20 04:31:15;;;;;;;8.77;7.17;;;;;;;;;;5048290;28;20931;-74
2022/03/20 04:33:41;;;;;;;7.83;6.70;;;;;;;;;;5041731;28;20446;-74
2022/03/20 04:36:08;;;;;;;7.47;6.60;;;;;;;;;;5045929;28;20517;-73
2022/03/20 04:38:35;;;;;;;17.30;7.00;;;;;;;;;;5047785;28;20811;-73
2022/03/20 04:41:01;;;;;;;9.53;7.97;;;;;;;;;;5044517;28;20521;-74
2022/03/20 04:43:27;;;;;;;8.03;7.30;;;;;;;;;;5039781;28;20434;-74
2022/03/20 04:45:53;;;;;;;6.97;6.43;;;;;;;;;;5044327;28;20489;-74
2022/03/20 04:59:18;;;;;;;6.57;6.03;;;;;;;;;;5045345;28;20480;-74
2022/03/20 05:01:44;;;;;;;9.90;7.00;;;;;;;;;;5047831;28;20849;-74
2022/03/20 05:04:14;;;;;;;7.90;7.20;;;;;;;;;;5038689;28;20491;-74
2022/03/20 05:06:43;;;;;;;10.00;7.57;;;;;;;;;;5048122;28;20992;-73
2022/03/20 05:14:38;;;;;;;7.90;7.27;;;;;;;;;;5040293;28;20827;-74
2022/03/20 05:17:07;;;;;;;7.00;6.50;;;;;;;;;;5046526;28;20454;-74
2022/03/20 05:19:37;;;;;;;7.23;6.60;;;;;;;;;;5050333;28;20929;-73
2022/03/20 05:22:04;;;;;;;9.77;6.77;;;;;;;;;;5051557;28;20434;-74
2022/03/20 05:24:30;;;;;;;12.10;7.43;;;;;;;;;;5047878;28;20454;-74
2022/03/20 05:26:56;;;;;;;8.83;7.57;;;;;;;;;;5049254;28;20438;-74
2022/03/20 05:29:23;;;;;;;9.07;7.20;;;;;;;;;;5047625;28;20989;-74
2022/03/20 05:31:49;;;;;;;11.07;7.87;;;;;;;;;;5043666;28;20433;-74
2022/03/20 05:34:16;;;;;;;9.93;7.90;;;;;;;;;;5048673;28;20857;-74
2022/03/20 05:36:42;;;;;;;12.40;8.50;;;;;;;;;;5050803;28;20558;-74
2022/03/20 05:39:08;;;;;;;11.03;7.97;;;;;;;;;;5049681;28;20954;-73
2022/03/20 05:41:47;;;;;;;8.17;7.37;;;;;;;;;;5044903;28;20469;-73
2022/03/20 05:44:13;;;;;;;8.87;7.90;;;;;;;;;;5049621;28;20488;-74
2022/03/20 05:46:40;;;;;;;8.57;7.40;;;;;;;;;;5049796;28;20474;-73
2022/03/20 05:49:06;;;;;;;8.13;7.30;;;;;;;;;;5050953;28;20482;-74
2022/03/20 05:51:34;;;;;;;6.67;5.97;;;;;;;;;;5039488;28;20431;-74
2022/03/20 05:54:00;;;;;;;9.20;6.60;;;;;;;;;;5049622;28;21022;-74
2022/03/20 05:59:10;;;;;;;7.93;7.20;;;;;;;;;;5050185;28;20465;-74
2022/03/20 06:01:36;;;;;;;11.20;7.90;;;;;;;;;;5042996;28;20485;-73
2022/03/20 06:04:03;;;;;;;8.03;7.33;;;;;;;;;;5041281;28;20438;-74
2022/03/20 06:06:32;;;;;;;8.60;7.43;;;;;;;;;;5050663;28;20449;-74
2022/03/20 06:08:58;;;;;;;9.10;8.03;;;;;;;;;;5049640;28;20474;-74
2022/03/20 06:11:24;;;;;;;8.90;7.97;;;;;;;;;;5048867;28;20465;-73
2022/03/20 06:13:50;;;;;;;8.53;7.83;;;;;;;;;;5045800;28;20461;-74
2022/03/20 06:16:17;;;;;;;9.63;7.23;;;;;;;;;;5043453;28;20492;-74
2022/03/20 06:18:43;;;;;;;11.13;7.80;;;;;;;;;;5050275;28;20938;-74
2022/03/20 06:21:13;;;;;;;7.60;6.90;;;;;;;;;;5049643;28;20434;-74
2022/03/20 06:23:38;;;;;;;9.47;7.93;;;;;;;;;;5046656;28;20430;-73
2022/03/20 06:26:05;;;;;;;7.77;6.80;;;;;;;;;;5044151;28;20438;-73
2022/03/20 06:28:32;;;;;;;9.37;7.03;;;;;;;;;;5047056;28;20429;-74
2022/03/20 06:30:59;;;;;;;9.30;8.30;;;;;;;;;;5049246;28;20450;-74
2022/03/20 06:33:28;;;;;;;7.53;6.90;;;;;;;;;;5046066;28;20465;-74
2022/03/20 06:35:54;;;;;;;8.17;6.93;;;;;;;;;;5038032;28;20831;-73
2022/03/20 06:38:23;;;;;;;10.70;7.37;;;;;;;;;;5048364;28;20496;-74
2022/03/20 06:40:50;;;;;;;9.00;8.10;;;;;;;;;;5049882;28;20841;-73
2022/03/20 06:43:16;;;;;;;8.83;7.80;;;;;;;;;;5048498;28;20935;-73
2022/03/20 06:45:42;;;;;;;8.60;7.87;;;;;;;;;;5040381;28;20493;-73
2022/03/20 06:48:08;;;;;;;7.70;7.00;;;;;;;;;;5048715;28;20438;-73
2022/03/20 06:50:34;;;;;;;8.40;7.70;;;;;;;;;;5049128;28;20543;-74
2022/03/20 06:53:03;;;;;;;8.83;7.93;;;;;;;;;;5047666;28;20786;-73
2022/03/20 06:55:30;;;;;;;7.90;7.30;;;;;;;;;;5041037;28;20981;-74
2022/03/20 06:57:57;;;;;;;13.63;7.10;;;;;;;;;;5048288;28;21004;-67
2022/03/20 07:00:26;;;;;;;10.10;7.50;;;;;;;;;;5048499;28;20437;-74
2022/03/20 07:02:53;;;;;;;8.70;7.80;;;;;;;;;;5047777;28;20438;-74
2022/03/20 07:05:19;;;;;;;8.83;7.27;;;;;;;;;;5039391;28;20430;-74
2022/03/20 07:07:46;;;;;;;7.80;6.47;;;;;;;;;;5044263;28;20434;-74
2022/03/20 07:10:14;;;;;;;7.97;7.27;;;;;;;;;;5050119;28;21020;-74
2022/03/20 07:12:40;;;;;;;9.20;8.10;;;;;;;;;;5044645;28;20850;-74
2022/03/20 07:15:06;;;;;;;15.07;11.30;;;;;;;;;;5040811;28;20446;-74
2022/03/20 07:17:37;;;;;;;12.13;9.37;;;;;;;;;;5045522;28;20472;-74
2022/03/20 07:20:03;;;;;;;8.10;7.47;;;;;;;;;;5044778;28;20440;-74
2022/03/20 07:22:29;;;;;;;11.87;9.00;;;;;;;;;;5048696;28;20433;-74
2022/03/20 07:29:29;;;;;;;10.00;8.13;;;;;;;;;;5042204;28;20449;-74
2022/03/20 07:30:26;;;;;;;11.13;8.70;;;;;;;;;;5048413;28;20838;-73
2022/03/20 07:32:52;;;;;;;7.07;6.37;;;;;;;;;;5047514;28;20426;-73
2022/03/20 07:35:18;;;;;;;9.37;7.33;;;;;;;;;;5037272;28;20486;-74
2022/03/20 07:37:44;;;;;;;6.77;6.20;;;;;;;;;;5035591;28;20446;-74
2022/03/20 07:40:10;;;;;;;8.40;6.77;;;;;;;;;;5043690;28;20438;-74
2022/03/20 07:42:37;;;;;;;9.30;7.03;;;;;;;;;;5048109;28;20434;-74
2022/03/20 07:45:03;;;;;;;8.63;7.70;;;;;;;;;;5042775;28;20453;-74
2022/03/20 07:47:29;;;;;;;8.90;7.80;;;;;;;;;;5040949;28;20453;-74
2022/03/20 07:49:55;;;;;;;11.10;8.60;;;;;;;;;;5046851;28;20593;-74
2022/03/20 07:52:22;;;;;;;12.67;11.47;;;;;;;;;;5048643;28;20266;-74
2022/03/20 07:54:48;;;;;;;21.73;11.60;;;;;;;;;;5042186;28;20464;-75
2022/03/20 07:57:14;;;;;;;9.30;7.50;;;;;;;;;;5042809;28;20438;-75
2022/03/20 07:59:42;;;;;;;16.30;7.77;;;;;;;;;;5042542;28;20870;-74
2022/03/20 08:02:08;;;;;;;16.63;10.10;;;;;;;;;;5045287;28;20433;-74
2022/03/20 08:04:33;;;;;;;16.57;9.90;;;;;;;;;;5045666;28;20519;-75
2022/03/20 08:06:59;;;;;;;9.37;8.20;;;;;;;;;;5044347;28;20462;-76
2022/03/20 08:09:28;;;;;;;12.03;8.23;;;;;;;;;;5044046;28;20482;-74
2022/03/20 08:11:54;;;;;;;9.20;8.30;;;;;;;;;;5038305;28;20525;-75
2022/03/20 08:14:20;;;;;;;8.63;7.83;;;;;;;;;;5042430;28;20551;-74
2022/03/20 08:16:48;;;;;;;8.23;7.40;;;;;;;;;;5045401;28;20439;-75
2022/03/20 08:19:16;;;;;;;10.90;7.40;;;;;;;;;;5043824;28;20446;-74
2022/03/20 08:21:43;;;;;;;9.80;7.93;;;;;;;;;;5047288;28;20430;-74
2022/03/20 08:24:12;;;;;;;12.53;9.47;;;;;;;;;;5047049;28;20462;-75
2022/03/20 08:26:40;;;;;;;10.30;7.87;;;;;;;;;;5039511;28;20525;-75
2022/03/20 08:29:10;;;;;;;8.67;7.07;;;;;;;;;;5044515;28;20879;-73
2022/03/20 08:31:36;;;;;;;10.10;8.27;;;;;;;;;;5046950;28;20452;-73
2022/03/20 08:34:03;;;;;;;8.33;7.60;;;;;;;;;;5046043;28;20926;-73
2022/03/20 08:36:29;;;;;;;11.00;8.60;;;;;;;;;;5045800;28;20419;-72
2022/03/20 08:38:55;;;;;;;8.87;7.97;;;;;;;;;;5035930;28;20319;-73
2022/03/20 08:41:21;;;;;;;11.23;8.40;;;;;;;;;;5043769;28;20532;-72
2022/03/20 08:43:47;;;;;;;9.00;7.80;;;;;;;;;;5046809;28;20434;-73
2022/03/20 08:46:15;;;;;;;11.63;8.23;;;;;;;;;;5046117;28;20508;-72
2022/03/20 08:48:41;;;;;;;8.53;7.70;;;;;;;;;;5042288;28;20479;-73
2022/03/20 08:51:07;;;;;;;8.40;7.07;;;;;;;;;;5050663;28;20488;-74
2022/03/20 08:53:33;;;;;;;8.73;7.93;;;;;;;;;;5040668;28;20489;-73
2022/03/20 08:55:59;;;;;;;12.10;8.70;;;;;;;;;;5077975;28;20449;-73
2022/03/20 08:58:25;;;;;;;12.13;9.17;;;;;;;;;;5047866;28;20926;-72
2022/03/20 09:00:51;;;;;;;11.53;9.40;;;;;;;;;;5039753;28;21733;-73
2022/03/20 09:03:17;;;;;;;11.83;9.17;;;;;;;;;;5050959;28;20501;-72
2022/03/20 09:05:44;;;;;;;12.77;8.83;;;;;;;;;;5052639;28;20476;-72
2022/03/20 09:08:10;;;;;;;7.80;7.20;;;;;;;;;;5040173;28;20549;-72
2022/03/20 09:10:36;;;;;;;11.73;9.43;;;;;;;;;;5046304;28;21107;-73
2022/03/20 09:13:02;;;;;;;14.30;10.87;;;;;;;;;;5049443;28;20803;-73
2022/03/20 09:15:29;;;;;;;13.77;11.00;;;;;;;;;;5050329;28;20446;-72
2022/03/20 09:20:41;;;;;;;18.83;11.13;;;;;;;;;;5052334;28;20437;-74
2022/03/20 09:23:08;;;;;;;12.57;11.33;;;;;;;;;;5051906;28;21004;-72
2022/03/20 09:25:34;;;;;;;17.23;11.33;;;;;;;;;;5051805;28;20442;-72
2022/03/20 09:28:00;;;;;;;14.67;11.63;;;;;;;;;;5040735;28;20438;-72
2022/03/20 09:30:26;;;;;;;8.00;7.40;;;;;;;;;;5051854;28;20474;-72
2022/03/20 09:32:52;;;;;;;18.93;11.30;;;;;;;;;;5051291;28;20532;-72
2022/03/20 09:35:18;;;;;;;16.40;13.27;;;;;;;;;;5051944;28;20426;-72
2022/03/20 09:37:45;;;;;;;32.20;17.47;;;;;;;;;;5039592;28;20958;-72
2022/03/20 09:40:12;;;;;;;19.87;13.63;;;;;;;;;;5044625;28;20477;-73
2022/03/20 09:42:38;;;;;;;15.30;12.13;;;;;;;;;;5044892;28;20522;-72
2022/03/20 09:45:05;;;;;;;21.10;13.47;;;;;;;;;;5049127;28;20469;-73
2022/03/20 09:47:35;;;;;;;20.70;13.87;;;;;;;;;;5047603;28;20453;-74
2022/03/20 09:50:01;;;;;;;18.70;13.23;;;;;;;;;;5050291;28;20482;-73
2022/03/20 09:52:27;;;;;;;16.13;12.73;;;;;;;;;;5046982;28;20522;-74
2022/03/20 09:54:53;;;;;;;15.10;11.73;;;;;;;;;;5036108;28;20450;-74
2022/03/20 09:57:19;;;;;;;13.27;11.83;;;;;;;;;;5044759;28;20855;-74
2022/03/20 09:59:45;;;;;;;18.47;13.90;;;;;;;;;;5048221;28;20461;-73
2022/03/20 10:02:11;;;;;;;18.63;12.70;;;;;;;;;;5046358;28;20490;-72
2022/03/20 10:04:53;;;;;;;12.17;10.73;;;;;;;;;;5046003;28;20965;-68
2022/03/20 10:07:33;;;;;;;24.17;13.37;;;;;;;;;;5045326;28;20930;-73
2022/03/20 10:10:10;;;;;;;15.03;12.30;;;;;;;;;;5049446;28;20492;-73
2022/03/20 10:12:37;;;;;;;18.30;13.13;;;;;;;;;;5039917;28;20517;-72
2022/03/20 10:15:05;;;;;;;18.67;12.47;;;;;;;;;;5047240;28;20441;-72
2022/03/20 10:17:31;;;;;;;22.23;14.50;;;;;;;;;;5041199;28;20438;-73
2022/03/20 10:20:13;;;;;;;20.45;14.07;;;;;;;;;;5047560;28;20460;-80
2022/03/20 10:22:39;;;;;;;17.30;13.43;;;;;;;;;;5046355;28;20186;-73
2022/03/20 10:25:06;;;;;;;19.83;14.30;;;;;;;;;;5038390;28;20450;-72
2022/03/20 10:27:32;;;;;;;24.03;14.57;;;;;;;;;;5048089;28;20438;-71
2022/03/20 10:29:59;;;;;;;14.20;11.80;;;;;;;;;;5047000;28;20550;-72
2022/03/20 10:32:25;;;;;;;16.27;13.37;;;;;;;;;;5049660;28;20415;-72
2022/03/20 10:34:52;;;;;;;21.00;13.50;;;;;;;;;;5050045;28;20787;-73
2022/03/20 10:37:19;;;;;;;20.20;12.80;;;;;;;;;;5049860;28;20429;-72
2022/03/20 10:39:45;;;;;;;21.77;15.33;;;;;;;;;;5047500;28;20746;-74
2022/03/20 10:42:16;;;;;;;16.50;11.80;;;;;;;;;;5045509;28;20438;-71
2022/03/20 10:44:42;;;;;;;17.57;13.00;;;;;;;;;;5047714;28;20950;-71
2022/03/20 10:47:16;;;;;;;26.07;13.87;;;;;;;;;;5048824;28;20576;-72
2022/03/20 10:49:44;;;;;;;19.67;13.10;;;;;;;;;;5049753;28;20478;-72
2022/03/20 10:52:18;;;;;;;15.50;13.23;;;;;;;;;;5048718;28;20430;-73
2022/03/20 10:54:51;;;;;;;22.80;13.50;;;;;;;;;;5050930;28;20429;-72
2022/03/20 10:57:18;;;;;;;19.23;12.77;;;;;;;;;;5044231;28;20809;-72
2022/03/20 10:59:56;;;;;;;26.27;13.40;;;;;;;;;;5046466;28;20435;-72
2022/03/20 11:02:23;;;;;;;23.93;14.50;;;;;;;;;;5045543;28;20556;-73
2022/03/20 11:04:49;;;;;;;29.60;21.77;;;;;;;;;;5048136;28;20828;-70
2022/03/20 11:07:19;;;;;;;23.90;13.97;;;;;;;;;;5046469;28;20442;-73
2022/03/20 11:09:49;;;;;;;19.83;12.80;;;;;;;;;;5048349;28;20481;-73
2022/03/20 11:12:18;;;;;;;21.40;12.47;;;;;;;;;;5049518;28;20503;-73
2022/03/20 11:14:45;;;;;;;16.53;13.80;;;;;;;;;;5046566;28;20441;-73
2022/03/20 11:17:13;;;;;;;19.73;12.00;;;;;;;;;;5049161;28;20419;-74
2022/03/20 11:19:43;;;;;;;12.20;10.53;;;;;;;;;;5049136;28;20437;-73
2022/03/20 11:22:10;;;;;;;22.40;12.40;;;;;;;;;;5048491;28;20422;-73
2022/03/20 11:24:37;;;;;;;18.40;12.30;;;;;;;;;;5047188;28;20468;-74
2022/03/20 11:27:03;;;;;;;22.67;16.80;;;;;;;;;;5049280;28;20484;-72
2022/03/20 11:29:31;;;;;;;16.00;12.20;;;;;;;;;;5049594;28;20477;-73
2022/03/20 11:31:59;;;;;;;15.20;12.43;;;;;;;;;;5047904;28;20434;-73
2022/03/20 11:34:25;;;;;;;14.93;12.63;;;;;;;;;;5049666;28;20430;-73
2022/03/20 11:37:08;;;;;;;23.50;14.43;;;;;;;;;;5046579;28;20449;-70
2022/03/20 11:39:35;;;;;;;14.40;12.50;;;;;;;;;;5041125;28;20442;-73
2022/03/20 11:42:21;;;;;;;18.30;14.67;;;;;;;;;;5047577;28;20457;-73
2022/03/20 11:44:54;;;;;;;18.47;13.37;;;;;;;;;;5044314;28;20804;-73
2022/03/20 11:47:22;;;;;;;21.77;13.67;;;;;;;;;;5049194;28;20566;-73
2022/03/20 11:50:06;;;;;;;19.87;12.47;;;;;;;;;;5047693;28;20492;-74
2022/03/20 11:52:55;;;;;;;15.70;12.33;;;;;;;;;;5047998;28;20888;-73
2022/03/20 11:55:30;;;;;;;24.00;14.50;;;;;;;;;;5042975;28;20434;-73
2022/03/20 11:57:57;;;;;;;23.77;12.83;;;;;;;;;;5044524;28;20464;-73
2022/03/20 12:00:28;;;;;;;18.10;11.80;;;;;;;;;;5045771;28;20449;-73
2022/03/20 12:02:53;;;;;;;20.30;12.67;;;;;;;;;;5047092;28;20455;-74
2022/03/20 12:05:26;;;;;;;20.83;12.13;;;;;;;;;;5043598;28;20437;-73
2022/03/20 12:07:52;;;;;;;16.90;11.70;;;;;;;;;;5045434;28;20445;-73
2022/03/20 12:10:23;;;;;;;16.37;13.03;;;;;;;;;;5046012;28;21033;-73
2022/03/20 12:13:00;;;;;;;6.93;6.23;;;;;;;;;;5037279;28;20942;-73
2022/03/20 12:15:29;;;;;;;20.57;12.63;;;;;;;;;;5040562;28;20455;-72
2022/03/20 12:17:58;;;;;;;15.13;11.67;;;;;;;;;;5045231;28;20442;-73
2022/03/20 12:20:43;;;;;;;14.23;11.73;;;;;;;;;;5046135;28;20435;-73
2022/03/20 12:23:27;;;;;;;10.87;9.67;;;;;;;;;;5046407;28;20433;-66
2022/03/20 12:25:54;;;;;;;13.40;9.57;;;;;;;;;;5046389;28;20437;-73
2022/03/20 12:28:30;;;;;;;15.23;11.87;;;;;;;;;;5048256;28;20814;-75
2022/03/20 12:30:56;;;;;;;10.57;8.77;;;;;;;;;;5049283;28;20454;-74
2022/03/20 12:33:23;;;;;;;9.33;8.33;;;;;;;;;;5047918;28;20461;-74
2022/03/20 12:35:49;;;;;;;8.27;7.47;;;;;;;;;;5046441;28;20550;-73
2022/03/20 12:38:37;;;;;;;17.60;11.40;;;;;;;;;;5046455;28;20923;-73
2022/03/20 12:41:22;;;;;;;15.00;10.13;;;;;;;;;;5047333;28;20870;-73
2022/03/20 12:43:58;;;;;;;14.10;10.60;;;;;;;;;;5046527;28;20430;-73
2022/03/20 12:46:25;;;;;;;13.30;9.80;;;;;;;;;;5047922;28;20525;-73
2022/03/20 12:48:52;;;;;;;11.10;8.60;;;;;;;;;;5048476;28;20465;-74
2022/03/20 12:51:24;;;;;;;12.20;8.30;;;;;;;;;;5049175;28;20460;-76
2022/03/20 12:53:52;;;;;;;8.57;7.67;;;;;;;;;;5045110;28;20440;-68
2022/03/20 12:58:47;;;;;;;10.73;9.03;;;;;;;;;;5048083;28;20458;-72
2022/03/20 13:01:13;;;;;;;11.73;9.67;;;;;;;;;;5047242;28;20927;-72
2022/03/20 13:03:40;;;;;;;14.33;8.63;;;;;;;;;;5046757;28;20434;-73
2022/03/20 13:06:06;;;;;;;17.33;10.40;;;;;;;;;;5048060;28;20438;-74
2022/03/20 13:08:35;;;;;;;10.07;9.03;;;;;;;;;;5045279;28;20487;-74
2022/03/20 13:11:04;;;;;;;18.53;10.87;;;;;;;;;;5048028;28;20431;-74
2022/03/20 13:13:34;;;;;;;15.37;9.80;;;;;;;;;;5045888;28;20431;-74
2022/03/20 13:16:01;;;;;;;17.40;10.40;;;;;;;;;;5048111;28;20458;-74
2022/03/20 13:18:29;;;;;;;13.97;10.00;;;;;;;;;;5047019;28;20418;-74
2022/03/20 13:20:55;;;;;;;12.73;9.33;;;;;;;;;;5041082;28;20438;-74
2022/03/20 13:23:22;;;;;;;14.77;9.63;;;;;;;;;;5048014;28;20464;-74
2022/03/20 13:25:50;;;;;;;15.37;9.43;;;;;;;;;;5046671;28;20537;-74
2022/03/20 13:28:26;;;;;;;18.83;8.37;;;;;;;;;;5048497;28;20452;-74
2022/03/20 13:30:52;;;;;;;7.20;6.27;;;;;;;;;;5048873;28;20993;-73
2022/03/20 13:33:37;;;;;;;6.60;5.17;;;;;;;;;;5048707;28;20421;-74
2022/03/20 13:36:08;;;;;;;8.63;7.00;;;;;;;;;;5047236;28;20967;-74
2022/03/20 13:38:43;;;;;;;4.50;4.20;;;;;;;;;;5052300;28;20422;-74
2022/03/20 13:41:11;;;;;;;5.90;5.40;;;;;;;;;;5052189;28;20422;-74
2022/03/20 13:43:37;;;;;;;6.50;5.90;;;;;;;;;;5051244;28;20446;-73
2022/03/20 13:46:13;;;;;;;8.77;5.20;;;;;;;;;;5051931;28;20515;-74
2022/03/20 13:48:39;;;;;;;7.00;6.13;;;;;;;;;;5051826;28;20910;-74
2022/03/20 13:51:05;;;;;;;7.50;6.70;;;;;;;;;;5049287;28;20496;-74
2022/03/20 13:53:31;;;;;;;11.63;6.50;;;;;;;;;;5050636;28;20459;-74
2022/03/20 13:55:57;;;;;;;5.33;4.90;;;;;;;;;;5052044;28;20469;-74
2022/03/20 13:58:23;;;;;;;7.07;5.50;;;;;;;;;;5050705;28;20431;-73
2022/03/20 14:00:58;;;;;;;11.10;5.50;;;;;;;;;;5050650;28;20430;-73
2022/03/20 14:03:30;;;;;;;6.00;4.87;;;;;;;;;;5049290;28;20443;-73
2022/03/20 14:05:56;;;;;;;7.70;5.60;;;;;;;;;;5049848;28;20433;-74
2022/03/20 14:08:22;;;;;;;12.20;5.82;;;;;;;;;;5049684;28;20428;-73
2022/03/20 14:10:56;;;;;;;10.73;5.43;;;;;;;;;;5051602;28;20215;-73
2022/03/20 14:13:24;;;;;;;8.30;5.30;;;;;;;;;;5049589;28;20431;-74
2022/03/20 14:15:55;;;;;;;13.50;5.90;;;;;;;;;;5050488;28;20436;-74
2022/03/20 14:18:21;;;;;;;6.50;5.87;;;;;;;;;;5051340;28;20445;-74
2022/03/20 14:20:48;;;;;;;7.60;5.40;;;;;;;;;;5050074;28;20411;-74
2022/03/20 14:23:14;;;;;;;14.03;4.20;;;;;;;;;;5044319;28;20433;-74
2022/03/20 14:25:42;;;;;;;9.70;5.90;;;;;;;;;;5050462;28;20426;-74
2022/03/20 14:28:08;;;;;;;4.07;3.87;;;;;;;;;;5051151;28;20926;-74
2022/03/20 14:41:35;;;;;;;5.63;5.03;;;;;;;;;;5046043;28;20545;-74
2022/03/20 14:44:14;;;;;;;8.77;4.63;;;;;;;;;;5049117;28;20446;-73
2022/03/20 14:46:44;;;;;;;4.00;3.60;;;;;;;;;;5043801;28;20486;-74
2022/03/20 14:49:11;;;;;;;9.30;5.00;;;;;;;;;;5049879;28;20476;-74
2022/03/20 14:51:37;;;;;;;4.73;4.30;;;;;;;;;;5047383;28;20430;-74
2022/03/20 14:54:04;;;;;;;6.77;4.83;;;;;;;;;;5044576;28;20446;-74
2022/03/20 14:56:30;;;;;;;9.60;5.50;;;;;;;;;;5048183;28;20508;-74
2022/03/20 14:58:58;;;;;;;4.17;3.87;;;;;;;;;;5043551;28;20442;-74
2022/03/20 15:01:24;;;;;;;6.10;4.80;;;;;;;;;;5046770;28;20444;-73
2022/03/20 15:03:50;;;;;;;10.67;5.20;;;;;;;;;;5042739;28;20442;-74
2022/03/20 15:06:16;;;;;;;7.40;4.30;;;;;;;;;;5047357;28;20481;-73
2022/03/20 15:11:27;;;;;;;3.10;3.00;;;;;;;;;;5047360;28;20503;-74
2022/03/20 15:13:53;;;;;;;11.53;3.90;;;;;;;;;;5044060;28;20449;-74
2022/03/20 15:16:20;;;;;;;6.50;4.73;;;;;;;;;;5047098;28;20446;-74
2022/03/20 15:18:46;;;;;;;6.23;4.40;;;;;;;;;;5040419;28;20922;-73
2022/03/20 15:21:12;;;;;;;4.10;3.73;;;;;;;;;;5048480;28;20445;-74
2022/03/20 15:23:38;;;;;;;5.87;4.57;;;;;;;;;;5047950;28;20441;-74
2022/03/20 15:26:04;;;;;;;6.97;4.20;;;;;;;;;;5048408;28;20446;-74